createdAt,value
2023-03-05T00:00:48.002Z,4.45
2023-03-05T00:03:14.446Z,4.44
2023-03-05T00:05:40.898Z,4.46
2023-03-05T00:08:07.427Z,4.51
2023-03-05T00:10:33.916Z,4.48
2023-03-05T00:13:00.314Z,4.53
2023-03-05T00:15:26.723Z,4.53
2023-03-05T00:17:53.147Z,4.50
2023-03-05T00:20:19.557Z,4.52
2023-03-05T00:22:45.971Z,4.54
2023-03-05T00:25:12.385Z,4.56
2023-03-05T00:27:39.402Z,4.59
2023-03-05T00:30:06.503Z,4.59
2023-03-05T00:32:32.988Z,4.58
2023-03-05T00:34:59.422Z,4.58
2023-03-05T00:37:25.843Z,4.57
2023-03-05T00:39:52.288Z,4.57
2023-03-05T00:42:18.693Z,4.57
2023-03-05T00:44:45.134Z,4.57
2023-03-05T00:47:11.739Z,4.56
2023-03-05T00:49:39.198Z,4.51
2023-03-05T00:52:05.625Z,4.56
2023-03-05T00:54:32.030Z,4.54
2023-03-05T00:56:58.415Z,4.54
2023-03-05T00:59:24.842Z,4.49
2023-03-05T01:01:51.266Z,4.50
2023-03-05T01:04:17.815Z,4.51
2023-03-05T01:06:46.126Z,4.51
2023-03-05T01:09:12.642Z,4.49
2023-03-05T01:11:39.811Z,4.46
2023-03-05T01:14:06.234Z,4.45
2023-03-05T01:16:32.662Z,4.43
2023-03-05T01:18:59.125Z,4.45
2023-03-05T01:21:25.708Z,4.44
2023-03-05T01:23:52.321Z,4.39
2023-03-05T01:26:18.749Z,4.34
2023-03-05T01:28:45.182Z,4.26
2023-03-05T01:31:11.994Z,4.17
2023-03-05T01:33:38.779Z,4.15
2023-03-05T01:36:14.872Z,4.14
2023-03-05T01:38:42.849Z,4.09
2023-03-05T01:41:10.150Z,4.07
2023-03-05T01:43:36.752Z,4.06
2023-03-05T01:46:37.362Z,4.06
2023-03-05T01:49:12.833Z,4.03
2023-03-05T01:52:00.628Z,3.99
2023-03-05T01:54:31.635Z,3.94
2023-03-05T01:56:59.650Z,3.95
2023-03-05T01:59:26.998Z,3.95
2023-03-05T02:01:55.979Z,3.94
2023-03-05T02:04:24.433Z,3.93
2023-03-05T02:06:50.833Z,3.94
2023-03-05T02:09:17.284Z,3.93
2023-03-05T02:11:43.912Z,3.93
2023-03-05T02:14:10.551Z,3.94
2023-03-05T02:16:38.240Z,3.92
2023-03-05T02:19:06.891Z,3.91
2023-03-05T02:21:43.023Z,3.92
2023-03-05T02:24:17.941Z,3.93
2023-03-05T02:26:45.075Z,3.93
2023-03-05T02:29:15.532Z,3.95
2023-03-05T02:31:42.117Z,3.94
2023-03-05T02:34:08.584Z,3.92
2023-03-05T02:36:34.995Z,3.89
2023-03-05T02:39:01.568Z,3.86
2023-03-05T02:41:28.108Z,3.88
2023-03-05T02:43:54.526Z,3.90
2023-03-05T02:46:20.957Z,3.88
2023-03-05T02:48:47.455Z,3.86
2023-03-05T02:51:14.106Z,3.84
2023-03-05T02:53:40.533Z,3.84
2023-03-05T02:56:07.315Z,3.86
2023-03-05T02:58:33.884Z,3.85
2023-03-05T03:01:00.364Z,3.82
2023-03-05T03:03:27.039Z,3.82
2023-03-05T03:05:53.532Z,3.81
2023-03-05T03:08:19.966Z,3.82
2023-03-05T03:10:46.391Z,3.84
2023-03-05T03:13:12.805Z,3.83
2023-03-05T03:15:40.359Z,3.83
2023-03-05T03:18:06.875Z,3.84
2023-03-05T03:20:34.865Z,3.82
2023-03-05T03:23:01.869Z,3.82
2023-03-05T03:25:28.521Z,3.85
2023-03-05T03:27:54.931Z,3.82
2023-03-05T03:30:21.390Z,3.82
2023-03-05T03:32:47.838Z,3.83
2023-03-05T03:35:14.297Z,3.88
2023-03-05T03:37:40.870Z,3.86
2023-03-05T03:40:07.972Z,3.89
2023-03-05T03:42:34.397Z,3.89
2023-03-05T03:45:02.220Z,3.90
2023-03-05T03:47:29.740Z,3.91
2023-03-05T03:49:56.276Z,3.93
2023-03-05T03:52:23.057Z,3.94
2023-03-05T03:54:52.224Z,3.93
2023-03-05T03:57:19.114Z,3.91
2023-03-05T03:59:46.045Z,3.89
2023-03-05T04:02:12.524Z,3.93
2023-03-05T04:04:38.978Z,3.92
2023-03-05T04:07:05.479Z,3.92
2023-03-05T04:09:31.899Z,3.90
2023-03-05T04:11:58.310Z,3.91
2023-03-05T04:14:26.570Z,3.91
2023-03-05T04:16:53.191Z,3.91
2023-03-05T04:19:20.734Z,3.91
2023-03-05T04:21:47.168Z,3.91
2023-03-05T04:24:13.603Z,3.90
2023-03-05T04:26:40.012Z,3.86
2023-03-05T04:29:06.434Z,3.85
2023-03-05T04:31:32.927Z,3.87
2023-03-05T04:33:59.838Z,3.85
2023-03-05T04:36:26.381Z,3.88
2023-03-05T04:38:52.817Z,3.91
2023-03-05T04:41:19.256Z,3.92
2023-03-05T04:43:45.672Z,3.93
2023-03-05T04:46:12.163Z,3.92
2023-03-05T04:48:38.574Z,3.91
2023-03-05T04:51:05.284Z,3.92
2023-03-05T04:53:31.702Z,3.93
2023-03-05T04:56:01.361Z,3.92
2023-03-05T04:58:27.773Z,3.89
2023-03-05T05:00:54.188Z,3.92
2023-03-05T05:03:20.630Z,3.91
2023-03-05T05:05:54.311Z,3.92
2023-03-05T05:08:20.756Z,3.92
2023-03-05T05:11:04.806Z,3.92
2023-03-05T05:13:32.148Z,3.93
2023-03-05T05:15:58.825Z,3.94
2023-03-05T05:18:25.919Z,3.93
2023-03-05T05:20:52.358Z,3.93
2023-03-05T05:23:19.008Z,3.93
2023-03-05T05:25:45.696Z,3.93
2023-03-05T05:28:12.572Z,3.89
2023-03-05T05:30:39.170Z,3.87
2023-03-05T05:33:05.610Z,3.85
2023-03-05T05:35:32.071Z,3.85
2023-03-05T05:37:58.506Z,3.85
2023-03-05T05:40:24.916Z,3.82
2023-03-05T05:42:51.343Z,3.83
2023-03-05T05:45:17.945Z,3.83
2023-03-05T05:47:44.399Z,3.79
2023-03-05T05:50:11.436Z,3.77
2023-03-05T05:52:37.842Z,3.78
2023-03-05T05:55:04.579Z,3.78
2023-03-05T05:57:31.005Z,3.74
2023-03-05T05:59:57.428Z,3.67
2023-03-05T06:02:24.023Z,3.65
2023-03-05T06:04:50.461Z,3.63
2023-03-05T06:07:16.895Z,3.56
2023-03-05T06:09:43.329Z,3.59
2023-03-05T06:12:09.776Z,3.59
2023-03-05T06:14:36.184Z,3.60
2023-03-05T06:17:02.639Z,3.64
2023-03-05T06:19:29.037Z,3.67
2023-03-05T06:21:55.497Z,3.71
2023-03-05T06:24:22.353Z,3.71
2023-03-05T06:26:49.161Z,3.74
2023-03-05T06:29:15.882Z,3.78
2023-03-05T06:31:42.425Z,3.82
2023-03-05T06:34:08.874Z,3.87
2023-03-05T06:36:35.361Z,3.89
2023-03-05T06:39:01.852Z,3.94
2023-03-05T06:41:30.242Z,3.96
2023-03-05T06:43:57.423Z,4.00
2023-03-05T06:46:28.885Z,4.00
2023-03-05T06:48:57.141Z,4.04
2023-03-05T06:51:31.706Z,4.08
2023-03-05T06:54:04.417Z,4.14
2023-03-05T06:56:31.541Z,4.19
2023-03-05T06:58:58.000Z,4.19
2023-03-05T07:01:24.551Z,4.24
2023-03-05T07:03:52.446Z,4.23
2023-03-05T07:06:19.584Z,4.28
2023-03-05T07:08:46.040Z,4.31
2023-03-05T07:11:16.932Z,4.34
2023-03-05T07:13:43.847Z,4.42
2023-03-05T07:16:14.869Z,4.46
2023-03-05T07:18:41.335Z,4.47
2023-03-05T07:21:08.605Z,4.51
2023-03-05T07:23:36.071Z,4.54
2023-03-05T07:26:03.646Z,4.58
2023-03-05T07:28:30.289Z,4.59
2023-03-05T07:31:02.264Z,4.57
2023-03-05T07:33:28.754Z,4.56
2023-03-05T07:35:55.305Z,4.52
2023-03-05T07:38:22.168Z,4.49
2023-03-05T07:40:48.796Z,4.47
2023-03-05T07:43:15.410Z,4.50
2023-03-05T07:45:43.018Z,4.51
2023-03-05T07:48:13.905Z,4.46
2023-03-05T07:50:40.313Z,4.35
2023-03-05T07:53:06.750Z,4.32
2023-03-05T07:55:33.174Z,4.30
2023-03-05T07:57:59.612Z,4.30
2023-03-05T08:00:26.043Z,4.29
2023-03-05T08:02:52.550Z,4.33
2023-03-05T08:05:18.993Z,4.34
2023-03-05T08:07:45.429Z,4.38
2023-03-05T08:10:11.827Z,4.38
2023-03-05T08:12:38.263Z,4.41
2023-03-05T08:15:05.028Z,4.44
2023-03-05T08:17:31.440Z,4.45
2023-03-05T08:20:00.140Z,4.46
2023-03-05T08:22:27.101Z,4.47
2023-03-05T08:24:53.530Z,4.44
2023-03-05T08:27:19.937Z,4.44
2023-03-05T08:29:46.403Z,4.44
2023-03-05T08:32:12.823Z,4.41
2023-03-05T08:34:39.272Z,4.43
2023-03-05T08:37:07.676Z,4.40
2023-03-05T08:39:34.090Z,4.37
2023-03-05T08:42:00.567Z,4.37
2023-03-05T08:44:27.000Z,4.43
2023-03-05T08:46:53.425Z,4.47
2023-03-05T08:49:19.927Z,4.50
2023-03-05T08:51:46.330Z,4.58
2023-03-05T08:54:12.838Z,4.63
2023-03-05T08:56:39.385Z,4.66
2023-03-05T08:59:06.132Z,4.71
2023-03-05T09:01:32.865Z,4.72
2023-03-05T09:03:59.841Z,4.81
2023-03-05T09:06:26.836Z,4.84
2023-03-05T09:08:54.003Z,4.90
2023-03-05T09:11:20.842Z,4.85
2023-03-05T09:13:47.303Z,4.91
2023-03-05T09:16:16.462Z,4.91
2023-03-05T09:18:43.766Z,4.92
2023-03-05T09:21:13.481Z,4.91
2023-03-05T09:23:40.513Z,4.93
2023-03-05T09:26:08.665Z,4.94
2023-03-05T09:28:35.326Z,4.85
2023-03-05T09:31:03.872Z,4.68
2023-03-05T09:33:32.027Z,4.57
2023-03-05T09:35:59.541Z,4.47
2023-03-05T09:38:26.208Z,4.43
2023-03-05T09:41:07.736Z,4.44
2023-03-05T09:44:12.186Z,4.29
2023-03-05T09:47:02.854Z,4.25
2023-03-05T09:49:46.060Z,4.22
2023-03-05T09:52:21.347Z,4.19
2023-03-05T09:54:55.483Z,4.14
2023-03-05T09:57:55.290Z,4.07
2023-03-05T10:00:33.500Z,4.05
2023-03-05T10:03:05.858Z,4.00
2023-03-05T10:06:02.340Z,4.02
2023-03-05T10:08:44.993Z,4.09
2023-03-05T10:11:22.359Z,4.09
2023-03-05T10:13:50.571Z,4.11
2023-03-05T10:17:09.446Z,4.14
2023-03-05T10:19:51.864Z,4.13
2023-03-05T10:22:21.523Z,4.09
2023-03-05T10:25:04.123Z,4.01
2023-03-05T10:27:40.172Z,3.86
2023-03-05T10:30:17.753Z,3.80
2023-03-05T10:32:55.809Z,3.88
2023-03-05T10:36:01.539Z,4.03
2023-03-05T10:38:53.457Z,4.23
2023-03-05T10:41:33.416Z,4.36
2023-03-05T10:44:15.684Z,4.46
2023-03-05T10:46:42.899Z,4.58
2023-03-05T10:49:32.169Z,4.72
2023-03-05T10:52:09.703Z,4.81
2023-03-05T10:54:37.540Z,4.85
2023-03-05T10:57:22.802Z,4.89
2023-03-05T10:59:49.118Z,4.98
2023-03-05T11:02:16.392Z,5.04
2023-03-05T11:04:42.854Z,5.13
2023-03-05T11:07:15.415Z,5.13
2023-03-05T11:09:42.941Z,5.14
2023-03-05T11:12:23.462Z,5.17
2023-03-05T11:15:09.441Z,5.10
2023-03-05T11:17:38.498Z,5.03
2023-03-05T11:20:20.109Z,5.06
2023-03-05T11:23:08.303Z,4.99
2023-03-05T11:25:52.576Z,5.01
2023-03-05T11:28:32.329Z,4.96
2023-03-05T11:31:18.197Z,5.00
2023-03-05T11:34:01.031Z,5.02
2023-03-05T11:36:33.859Z,4.99
2023-03-05T11:39:10.569Z,5.13
2023-03-05T11:41:55.629Z,5.22
2023-03-05T11:44:46.683Z,5.26
2023-03-05T11:47:31.935Z,5.25
2023-03-05T11:50:13.515Z,5.24
2023-03-05T11:52:46.333Z,5.29
2023-03-05T11:55:16.434Z,5.33
2023-03-05T11:58:07.799Z,5.40
2023-03-05T12:00:36.569Z,5.44
2023-03-05T12:03:09.916Z,5.49
2023-03-05T12:05:37.937Z,5.56
2023-03-05T12:08:05.779Z,5.61
2023-03-05T12:10:32.266Z,5.70
2023-03-05T12:13:10.543Z,5.80
2023-03-05T12:15:45.058Z,5.97
2023-03-05T12:18:33.195Z,6.10
2023-03-05T12:21:18.330Z,6.17
2023-03-05T12:23:47.791Z,6.21
2023-03-05T12:26:14.490Z,6.28
2023-03-05T12:28:40.796Z,6.41
2023-03-05T12:31:10.397Z,6.42
2023-03-05T12:33:38.926Z,6.57
2023-03-05T12:36:17.690Z,6.61
2023-03-05T12:38:48.512Z,6.71
2023-03-05T12:41:24.945Z,6.72
2023-03-05T12:44:04.872Z,6.71
2023-03-05T12:46:33.173Z,6.74
2023-03-05T12:48:59.645Z,6.79
2023-03-05T12:51:38.186Z,6.93
2023-03-05T12:54:28.938Z,6.89
2023-03-05T12:57:01.476Z,6.86
2023-03-05T13:00:09.025Z,6.96
2023-03-05T13:02:43.887Z,6.95
2023-03-05T13:05:21.607Z,6.92
2023-03-05T13:07:49.154Z,6.95
2023-03-05T13:10:29.464Z,6.96
2023-03-05T13:12:57.344Z,6.99
2023-03-05T13:15:26.232Z,6.94
2023-03-05T13:17:57.361Z,6.98
2023-03-05T13:20:28.827Z,6.98
2023-03-05T13:23:20.547Z,7.04
2023-03-05T13:26:15.063Z,6.98
2023-03-05T13:28:42.767Z,6.99
2023-03-05T13:31:18.668Z,6.98
2023-03-05T13:33:54.515Z,6.94
2023-03-05T13:36:22.208Z,6.85
2023-03-05T13:38:48.798Z,6.79
2023-03-05T13:41:15.081Z,6.83
2023-03-05T13:43:50.593Z,6.89
2023-03-05T13:46:43.479Z,6.89
2023-03-05T13:49:24.423Z,6.86
2023-03-05T13:51:53.575Z,6.90
2023-03-05T13:54:20.692Z,6.97
2023-03-05T13:56:58.668Z,7.01
2023-03-05T13:59:28.988Z,7.06
2023-03-05T14:01:57.076Z,7.01
2023-03-05T14:04:30.835Z,7.02
2023-03-05T14:07:03.798Z,7.04
2023-03-05T14:09:39.477Z,7.11
2023-03-05T14:12:15.547Z,7.18
2023-03-05T14:14:43.670Z,7.11
2023-03-05T14:17:23.352Z,7.05
2023-03-05T14:19:50.926Z,7.03
2023-03-05T14:22:32.934Z,6.92
2023-03-05T14:24:59.461Z,6.88
2023-03-05T14:27:25.971Z,6.76
2023-03-05T14:29:52.533Z,6.79
2023-03-05T14:32:28.409Z,6.71
2023-03-05T14:34:57.924Z,6.75
2023-03-05T14:37:29.413Z,6.65
2023-03-05T14:40:20.640Z,6.60
2023-03-05T14:42:57.651Z,6.54
2023-03-05T14:45:25.090Z,6.50
2023-03-05T14:47:53.037Z,6.45
2023-03-05T14:50:24.723Z,6.43
2023-03-05T14:52:59.562Z,6.35
2023-03-05T14:55:30.965Z,6.28
2023-03-05T14:58:10.460Z,6.24
2023-03-05T15:00:37.133Z,6.09
2023-03-05T15:03:03.881Z,6.08
2023-03-05T15:05:30.386Z,6.06
2023-03-05T15:07:56.916Z,6.16
2023-03-05T15:10:24.792Z,6.21
2023-03-05T15:12:53.149Z,6.16
2023-03-05T15:15:21.126Z,6.11
2023-03-05T15:17:49.696Z,6.06
2023-03-05T15:20:27.561Z,6.10
2023-03-05T15:22:54.129Z,6.09
2023-03-05T15:25:22.232Z,6.03
2023-03-05T15:27:50.767Z,5.94
2023-03-05T15:30:23.299Z,5.87
2023-03-05T15:32:50.842Z,5.78
2023-03-05T15:35:17.309Z,5.72
2023-03-05T15:37:43.808Z,5.74
2023-03-05T15:40:10.763Z,5.69
2023-03-05T15:42:37.199Z,5.65
2023-03-05T15:45:04.060Z,5.63
2023-03-05T15:47:33.345Z,5.63
2023-03-05T15:49:59.956Z,5.66
2023-03-05T15:52:26.410Z,5.65
2023-03-05T15:54:52.811Z,5.68
2023-03-05T15:57:22.317Z,5.69
2023-03-05T15:59:48.793Z,5.68
2023-03-05T16:02:15.360Z,5.68
2023-03-05T16:04:41.770Z,5.71
2023-03-05T16:07:08.589Z,5.73
2023-03-05T16:09:37.849Z,5.73
2023-03-05T16:12:07.434Z,5.75
2023-03-05T16:14:33.860Z,5.77
2023-03-05T16:17:01.286Z,5.79
2023-03-05T16:19:27.866Z,5.82
2023-03-05T16:21:54.297Z,5.85
2023-03-05T16:24:20.703Z,5.85
2023-03-05T16:26:47.140Z,5.87
2023-03-05T16:29:13.581Z,5.86
2023-03-05T16:31:44.914Z,5.83
2023-03-05T16:34:13.986Z,5.83
2023-03-05T16:36:46.755Z,5.80
2023-03-05T16:39:13.157Z,5.78
2023-03-05T16:41:39.660Z,5.78
2023-03-05T16:44:06.084Z,5.80
2023-03-05T16:46:34.676Z,5.78
2023-03-05T16:49:01.581Z,5.77
2023-03-05T16:51:27.993Z,5.78
2023-03-05T16:53:55.708Z,5.76
2023-03-05T16:56:22.339Z,5.75
2023-03-05T16:58:50.531Z,5.73
2023-03-05T17:01:20.001Z,5.73
2023-03-05T17:03:47.363Z,5.73
2023-03-05T17:06:17.697Z,5.73
2023-03-05T17:08:45.453Z,5.73
2023-03-05T17:11:12.616Z,5.72
2023-03-05T17:13:39.532Z,5.72
2023-03-05T17:16:07.039Z,5.76
2023-03-05T17:18:33.831Z,5.78
2023-03-05T17:21:01.310Z,5.77
2023-03-05T17:23:27.866Z,5.77
2023-03-05T17:25:54.601Z,5.76
2023-03-05T17:28:21.195Z,5.76
2023-03-05T17:30:47.644Z,5.75
2023-03-05T17:33:14.143Z,5.76
2023-03-05T17:35:46.948Z,5.77
2023-03-05T17:38:14.214Z,5.78
2023-03-05T17:40:40.621Z,5.80
2023-03-05T17:43:07.026Z,5.78
2023-03-05T17:45:35.306Z,5.79
2023-03-05T17:48:01.905Z,5.80
2023-03-05T17:50:28.707Z,5.76
2023-03-05T17:52:55.326Z,5.73
2023-03-05T17:55:24.600Z,5.74
2023-03-05T17:57:51.631Z,5.75
2023-03-05T18:00:23.988Z,5.74
2023-03-05T18:02:50.789Z,5.74
2023-03-05T18:05:18.603Z,5.72
2023-03-05T18:07:45.102Z,5.71
2023-03-05T18:10:12.526Z,5.71
2023-03-05T18:12:39.273Z,5.70
2023-03-05T18:15:07.151Z,5.69
2023-03-05T18:17:33.567Z,5.67
2023-03-05T18:20:01.624Z,5.67
2023-03-05T18:22:30.062Z,5.65
2023-03-05T18:24:58.004Z,5.62
2023-03-05T18:27:24.926Z,5.59
2023-03-05T18:29:54.114Z,5.55
2023-03-05T18:32:21.916Z,5.57
2023-03-05T18:34:50.519Z,5.56
2023-03-05T18:37:17.070Z,5.54
2023-03-05T18:39:43.484Z,5.53
2023-03-05T18:42:12.598Z,5.51
2023-03-05T18:44:39.110Z,5.49
2023-03-05T18:47:05.529Z,5.48
2023-03-05T18:49:32.053Z,5.49
2023-03-05T18:51:58.555Z,5.51
2023-03-05T18:54:25.045Z,5.50
2023-03-05T18:56:51.456Z,5.49
2023-03-05T18:59:17.885Z,5.49
2023-03-05T19:01:44.415Z,5.49
2023-03-05T19:04:11.265Z,5.49
2023-03-05T19:06:38.400Z,5.50
2023-03-05T19:09:12.045Z,5.49
2023-03-05T19:11:38.465Z,5.50
2023-03-05T19:14:04.908Z,5.52
2023-03-05T19:16:38.176Z,5.51
2023-03-05T19:19:14.060Z,5.50
2023-03-05T19:21:41.255Z,5.47
2023-03-05T19:24:08.226Z,5.43
2023-03-05T19:26:34.839Z,5.38
2023-03-05T19:29:02.119Z,5.34
2023-03-05T19:31:28.545Z,5.33
2023-03-05T19:33:55.961Z,5.32
2023-03-05T19:36:22.569Z,5.28
2023-03-05T19:38:49.747Z,5.24
2023-03-05T19:41:17.884Z,5.23
2023-03-05T19:43:44.466Z,5.20
2023-03-05T19:46:11.042Z,5.16
2023-03-05T19:48:38.224Z,5.15
2023-03-05T19:51:09.770Z,5.14
2023-03-05T19:53:36.182Z,5.15
2023-03-05T19:56:03.904Z,5.14
2023-03-05T19:58:30.336Z,5.13
2023-03-05T20:00:56.775Z,5.12
2023-03-05T20:03:23.190Z,5.12
2023-03-05T20:05:49.804Z,5.11
2023-03-05T20:08:16.204Z,5.07
2023-03-05T20:10:42.661Z,5.06
2023-03-05T20:13:09.094Z,5.04
2023-03-05T20:15:35.580Z,5.05
2023-03-05T20:18:02.000Z,5.02
2023-03-05T20:20:30.882Z,5.01
2023-03-05T20:22:57.473Z,5.03
2023-03-05T20:25:24.850Z,5.03
2023-03-05T20:27:51.921Z,5.03
2023-03-05T20:30:19.093Z,5.02
2023-03-05T20:32:45.611Z,4.98
2023-03-05T20:35:15.007Z,4.97
2023-03-05T20:37:49.256Z,4.98
2023-03-05T20:40:16.556Z,4.96
2023-03-05T20:42:43.184Z,4.94
2023-03-05T20:45:09.929Z,4.97
2023-03-05T20:47:40.697Z,4.99
2023-03-05T20:50:11.457Z,4.96
2023-03-05T20:52:38.558Z,4.98
2023-03-05T20:55:06.202Z,4.96
2023-03-05T20:57:32.672Z,4.96
2023-03-05T21:00:00.290Z,4.98
2023-03-05T21:02:27.370Z,4.97
2023-03-05T21:04:53.792Z,4.95
2023-03-05T21:07:20.242Z,4.97
2023-03-05T21:09:46.654Z,4.96
2023-03-05T21:12:13.092Z,4.94
2023-03-05T21:14:40.718Z,4.94
2023-03-05T21:17:07.944Z,4.96
2023-03-05T21:19:34.486Z,4.95
2023-03-05T21:22:00.968Z,4.94
2023-03-05T21:24:32.748Z,4.94
2023-03-05T21:26:59.222Z,4.95
2023-03-05T21:29:25.662Z,4.95
2023-03-05T21:31:52.142Z,4.94
2023-03-05T21:34:19.474Z,4.95
2023-03-05T21:36:45.905Z,4.99
2023-03-05T21:39:12.311Z,4.96
2023-03-05T21:41:38.717Z,4.98
2023-03-05T21:44:05.923Z,5.01
2023-03-05T21:46:32.521Z,5.01
2023-03-05T21:48:58.929Z,4.99
2023-03-05T21:51:30.514Z,5.01
2023-03-05T21:53:56.917Z,5.01
2023-03-05T21:56:25.213Z,4.99
2023-03-05T21:58:52.580Z,5.00
2023-03-05T22:01:20.984Z,5.00
2023-03-05T22:03:48.627Z,4.98
2023-03-05T22:06:16.766Z,4.99
2023-03-05T22:08:43.201Z,4.97
2023-03-05T22:11:10.896Z,4.95
2023-03-05T22:13:37.742Z,4.94
2023-03-05T22:16:04.825Z,4.92
2023-03-05T22:18:32.045Z,4.92
2023-03-05T22:20:59.170Z,4.88
2023-03-05T22:23:29.144Z,4.89
2023-03-05T22:26:01.464Z,4.88
2023-03-05T22:28:28.632Z,4.87
2023-03-05T22:30:55.104Z,4.84
2023-03-05T22:33:23.080Z,4.83
2023-03-05T22:35:50.106Z,4.82
2023-03-05T22:38:16.864Z,4.84
2023-03-05T22:40:44.864Z,4.82
2023-03-05T22:43:12.223Z,4.83
2023-03-05T22:45:38.652Z,4.82
2023-03-05T22:48:05.541Z,4.84
2023-03-05T22:50:31.969Z,4.85
2023-03-05T22:52:59.224Z,4.84
2023-03-05T22:55:25.642Z,4.82
2023-03-05T22:57:52.080Z,4.79
2023-03-05T23:00:23.379Z,4.80
2023-03-05T23:02:51.020Z,4.79
2023-03-05T23:05:18.140Z,4.80
2023-03-05T23:07:45.326Z,4.81
2023-03-05T23:10:15.277Z,4.82
2023-03-05T23:12:46.234Z,4.83
2023-03-05T23:15:14.602Z,4.85
2023-03-05T23:17:41.125Z,4.87
2023-03-05T23:20:10.117Z,4.84
2023-03-05T23:22:37.541Z,4.84
2023-03-05T23:25:04.190Z,4.82
2023-03-05T23:27:30.617Z,4.83
2023-03-05T23:30:21.293Z,4.82
2023-03-05T23:33:07.094Z,4.80
2023-03-05T23:35:38.914Z,4.81
2023-03-05T23:38:08.111Z,4.80
2023-03-05T23:40:40.639Z,4.80
2023-03-05T23:43:07.565Z,4.79
2023-03-05T23:45:34.301Z,4.80
2023-03-05T23:48:01.212Z,4.82
2023-03-05T23:50:33.220Z,4.79
2023-03-05T23:53:02.010Z,4.77
2023-03-05T23:55:31.964Z,4.76
2023-03-05T23:57:58.559Z,4.75
